sensor_id;sensor_type;location;lat;lon;timestamp;P1;durP1;ratioP1;P2;durP2;ratioP2
6131;SDS011;3097;42.692;23.278;2023-10-09T00:00:57;3.83;;;2.50;;
6131;SDS011;3097;42.692;23.278;2023-10-09T00:03:41;4.43;;;2.30;;
6131;SDS011;3097;42.692;23.278;2023-10-09T00:06:07;4.10;;;2.47;;
6131;SDS011;3097;42.692;23.278;2023-10-09T00:08:33;3.40;;;1.93;;
6131;SDS011;3097;42.692;23.278;2023-10-09T00:11:02;4.43;;;2.30;;
6131;SDS011;3097;42.692;23.278;2023-10-09T00:13:39;4.87;;;2.30;;
6131;SDS011;3097;42.692;23.278;2023-10-09T00:16:15;4.13;;;2.47;;
6131;SDS011;3097;42.692;23.278;2023-10-09T00:18:41;6.37;;;2.30;;
6131;SDS011;3097;42.692;23.278;2023-10-09T00:21:17;13.40;;;2.43;;
6131;SDS011;3097;42.692;23.278;2023-10-09T00:23:53;2.67;;;1.77;;
6131;SDS011;3097;42.692;23.278;2023-10-09T00:26:21;7.57;;;2.07;;
6131;SDS011;3097;42.692;23.278;2023-10-09T00:28:47;2.37;;;2.10;;
6131;SDS011;3097;42.692;23.278;2023-10-09T00:31:15;2.40;;;2.20;;
6131;SDS011;3097;42.692;23.278;2023-10-09T00:33:44;4.27;;;2.40;;
6131;SDS011;3097;42.692;23.278;2023-10-09T00:36:10;8.10;;;2.50;;
6131;SDS011;3097;42.692;23.278;2023-10-09T00:38:37;6.50;;;2.20;;
6131;SDS011;3097;42.692;23.278;2023-10-09T00:41:10;4.07;;;2.50;;
6131;SDS011;3097;42.692;23.278;2023-10-09T00:43:36;4.80;;;2.43;;
6131;SDS011;3097;42.692;23.278;2023-10-09T00:46:02;4.67;;;2.67;;
6131;SDS011;3097;42.692;23.278;2023-10-09T00:48:46;5.33;;;2.30;;
6131;SDS011;3097;42.692;23.278;2023-10-09T00:51:17;4.00;;;2.20;;
6131;SDS011;3097;42.692;23.278;2023-10-09T00:53:48;2.50;;;2.30;;
6131;SDS011;3097;42.692;23.278;2023-10-09T00:56:18;2.57;;;2.33;;
6131;SDS011;3097;42.692;23.278;2023-10-09T00:58:51;2.80;;;2.47;;
6131;SDS011;3097;42.692;23.278;2023-10-09T01:01:24;4.13;;;2.47;;
6131;SDS011;3097;42.692;23.278;2023-10-09T01:03:54;3.43;;;2.30;;
6131;SDS011;3097;42.692;23.278;2023-10-09T01:06:21;2.53;;;2.40;;
6131;SDS011;3097;42.692;23.278;2023-10-09T01:08:52;3.90;;;2.20;;
6131;SDS011;3097;42.692;23.278;2023-10-09T01:11:38;2.10;;;1.70;;
6131;SDS011;3097;42.692;23.278;2023-10-09T01:14:13;2.60;;;2.40;;
6131;SDS011;3097;42.692;23.278;2023-10-09T01:16:40;3.73;;;2.13;;
6131;SDS011;3097;42.692;23.278;2023-10-09T01:19:07;2.57;;;2.10;;
6131;SDS011;3097;42.692;23.278;2023-10-09T01:21:38;2.27;;;2.07;;
6131;SDS011;3097;42.692;23.278;2023-10-09T01:24:05;4.50;;;2.10;;
6131;SDS011;3097;42.692;23.278;2023-10-09T01:26:37;2.87;;;2.67;;
6131;SDS011;3097;42.692;23.278;2023-10-09T01:29:07;5.03;;;2.33;;
6131;SDS011;3097;42.692;23.278;2023-10-09T01:31:43;2.70;;;1.67;;
6131;SDS011;3097;42.692;23.278;2023-10-09T01:34:28;3.03;;;2.33;;
6131;SDS011;3097;42.692;23.278;2023-10-09T01:37:19;4.90;;;2.20;;
6131;SDS011;3097;42.692;23.278;2023-10-09T01:39:54;1.83;;;1.73;;
6131;SDS011;3097;42.692;23.278;2023-10-09T01:42:24;2.33;;;2.10;;
6131;SDS011;3097;42.692;23.278;2023-10-09T01:45:00;2.73;;;2.33;;
6131;SDS011;3097;42.692;23.278;2023-10-09T01:47:41;3.00;;;2.47;;
6131;SDS011;3097;42.692;23.278;2023-10-09T01:50:11;4.17;;;2.40;;
6131;SDS011;3097;42.692;23.278;2023-10-09T01:52:44;5.97;;;4.63;;
6131;SDS011;3097;42.692;23.278;2023-10-09T01:55:10;5.40;;;2.50;;
6131;SDS011;3097;42.692;23.278;2023-10-09T01:57:40;2.47;;;2.27;;
6131;SDS011;3097;42.692;23.278;2023-10-09T02:00:09;3.50;;;1.80;;
6131;SDS011;3097;42.692;23.278;2023-10-09T02:02:41;3.80;;;2.23;;
6131;SDS011;3097;42.692;23.278;2023-10-09T02:05:10;4.33;;;2.10;;
6131;SDS011;3097;42.692;23.278;2023-10-09T02:07:49;3.87;;;2.57;;
6131;SDS011;3097;42.692;23.278;2023-10-09T02:10:21;2.30;;;2.10;;
6131;SDS011;3097;42.692;23.278;2023-10-09T02:12:57;2.50;;;2.30;;
6131;SDS011;3097;42.692;23.278;2023-10-09T02:15:35;6.77;;;2.40;;
6131;SDS011;3097;42.692;23.278;2023-10-09T02:18:09;2.17;;;1.97;;
6131;SDS011;3097;42.692;23.278;2023-10-09T02:20:44;4.43;;;2.23;;
6131;SDS011;3097;42.692;23.278;2023-10-09T02:23:20;2.30;;;2.10;;
6131;SDS011;3097;42.692;23.278;2023-10-09T02:25:50;5.90;;;1.60;;
6131;SDS011;3097;42.692;23.278;2023-10-09T02:28:18;5.97;;;2.30;;
6131;SDS011;3097;42.692;23.278;2023-10-09T02:30:47;2.90;;;2.23;;
6131;SDS011;3097;42.692;23.278;2023-10-09T02:33:13;2.60;;;2.40;;
6131;SDS011;3097;42.692;23.278;2023-10-09T02:35:55;2.20;;;2.10;;
6131;SDS011;3097;42.692;23.278;2023-10-09T02:38:25;3.23;;;2.27;;
6131;SDS011;3097;42.692;23.278;2023-10-09T02:40:51;2.10;;;2.00;;
6131;SDS011;3097;42.692;23.278;2023-10-09T02:43:45;7.00;;;2.43;;
6131;SDS011;3097;42.692;23.278;2023-10-09T02:46:16;3.70;;;1.90;;
6131;SDS011;3097;42.692;23.278;2023-10-09T02:48:47;6.90;;;1.60;;
6131;SDS011;3097;42.692;23.278;2023-10-09T02:51:18;2.53;;;2.17;;
6131;SDS011;3097;42.692;23.278;2023-10-09T02:54:07;2.17;;;2.07;;
6131;SDS011;3097;42.692;23.278;2023-10-09T02:56:49;2.13;;;2.03;;
6131;SDS011;3097;42.692;23.278;2023-10-09T02:59:30;2.30;;;2.10;;
6131;SDS011;3097;42.692;23.278;2023-10-09T03:01:55;2.80;;;2.60;;
6131;SDS011;3097;42.692;23.278;2023-10-09T03:04:22;2.90;;;1.83;;
6131;SDS011;3097;42.692;23.278;2023-10-09T03:06:48;4.07;;;2.00;;
6131;SDS011;3097;42.692;23.278;2023-10-09T03:09:18;4.43;;;2.00;;
6131;SDS011;3097;42.692;23.278;2023-10-09T03:11:51;2.20;;;2.00;;
6131;SDS011;3097;42.692;23.278;2023-10-09T03:14:20;5.33;;;2.20;;
6131;SDS011;3097;42.692;23.278;2023-10-09T03:16:50;2.47;;;1.83;;
6131;SDS011;3097;42.692;23.278;2023-10-09T03:19:15;2.10;;;2.00;;
6131;SDS011;3097;42.692;23.278;2023-10-09T03:21:41;1.30;;;1.20;;
6131;SDS011;3097;42.692;23.278;2023-10-09T03:24:07;2.90;;;1.63;;
6131;SDS011;3097;42.692;23.278;2023-10-09T03:26:36;3.80;;;1.80;;
6131;SDS011;3097;42.692;23.278;2023-10-09T03:29:02;2.00;;;1.90;;
6131;SDS011;3097;42.692;23.278;2023-10-09T03:31:32;4.50;;;1.70;;
6131;SDS011;3097;42.692;23.278;2023-10-09T03:33:58;2.40;;;1.40;;
6131;SDS011;3097;42.692;23.278;2023-10-09T03:36:24;3.63;;;1.87;;
6131;SDS011;3097;42.692;23.278;2023-10-09T03:38:52;6.27;;;4.07;;
6131;SDS011;3097;42.692;23.278;2023-10-09T03:41:23;1.63;;;1.53;;
6131;SDS011;3097;42.692;23.278;2023-10-09T03:43:51;4.27;;;1.70;;
6131;SDS011;3097;42.692;23.278;2023-10-09T03:46:17;3.27;;;1.70;;
6131;SDS011;3097;42.692;23.278;2023-10-09T03:48:58;1.60;;;1.50;;
6131;SDS011;3097;42.692;23.278;2023-10-09T03:51:27;2.73;;;1.50;;
6131;SDS011;3097;42.692;23.278;2023-10-09T03:53:53;2.17;;;1.80;;
6131;SDS011;3097;42.692;23.278;2023-10-09T03:56:18;1.60;;;1.50;;
6131;SDS011;3097;42.692;23.278;2023-10-09T03:58:46;1.63;;;1.53;;
6131;SDS011;3097;42.692;23.278;2023-10-09T04:01:18;1.70;;;1.60;;
6131;SDS011;3097;42.692;23.278;2023-10-09T04:03:57;3.53;;;1.40;;
6131;SDS011;3097;42.692;23.278;2023-10-09T04:06:28;1.73;;;1.63;;
6131;SDS011;3097;42.692;23.278;2023-10-09T04:09:00;2.70;;;1.40;;
6131;SDS011;3097;42.692;23.278;2023-10-09T04:11:44;1.43;;;1.20;;
6131;SDS011;3097;42.692;23.278;2023-10-09T04:14:15;1.50;;;1.40;;
6131;SDS011;3097;42.692;23.278;2023-10-09T04:16:57;3.40;;;1.70;;
6131;SDS011;3097;42.692;23.278;2023-10-09T04:19:42;1.80;;;1.70;;
6131;SDS011;3097;42.692;23.278;2023-10-09T04:22:16;1.47;;;1.27;;
6131;SDS011;3097;42.692;23.278;2023-10-09T04:24:52;2.20;;;1.67;;
6131;SDS011;3097;42.692;23.278;2023-10-09T04:27:17;1.40;;;1.20;;
6131;SDS011;3097;42.692;23.278;2023-10-09T04:29:51;1.90;;;1.40;;
6131;SDS011;3097;42.692;23.278;2023-10-09T04:32:19;1.50;;;1.40;;
6131;SDS011;3097;42.692;23.278;2023-10-09T04:34:45;3.27;;;1.70;;
6131;SDS011;3097;42.692;23.278;2023-10-09T04:37:36;1.87;;;1.27;;
6131;SDS011;3097;42.692;23.278;2023-10-09T04:40:03;2.07;;;1.33;;
6131;SDS011;3097;42.692;23.278;2023-10-09T04:42:58;1.60;;;1.50;;
6131;SDS011;3097;42.692;23.278;2023-10-09T04:45:23;3.10;;;1.10;;
6131;SDS011;3097;42.692;23.278;2023-10-09T04:48:07;10.83;;;1.90;;
6131;SDS011;3097;42.692;23.278;2023-10-09T04:50:34;1.30;;;1.20;;
6131;SDS011;3097;42.692;23.278;2023-10-09T04:52:59;4.33;;;1.60;;
6131;SDS011;3097;42.692;23.278;2023-10-09T04:55:45;1.90;;;1.80;;
6131;SDS011;3097;42.692;23.278;2023-10-09T04:58:20;2.87;;;1.20;;
6131;SDS011;3097;42.692;23.278;2023-10-09T05:00:50;2.50;;;1.60;;
6131;SDS011;3097;42.692;23.278;2023-10-09T05:03:22;4.63;;;1.70;;
6131;SDS011;3097;42.692;23.278;2023-10-09T05:06:07;5.07;;;1.40;;
6131;SDS011;3097;42.692;23.278;2023-10-09T05:08:46;3.37;;;2.20;;
6131;SDS011;3097;42.692;23.278;2023-10-09T05:11:12;4.33;;;1.90;;
6131;SDS011;3097;42.692;23.278;2023-10-09T05:14:00;2.80;;;2.17;;
6131;SDS011;3097;42.692;23.278;2023-10-09T05:16:38;9.57;;;4.07;;
6131;SDS011;3097;42.692;23.278;2023-10-09T05:19:19;2.10;;;2.00;;
6131;SDS011;3097;42.692;23.278;2023-10-09T05:22:15;2.90;;;1.70;;
6131;SDS011;3097;42.692;23.278;2023-10-09T05:25:01;3.87;;;2.50;;
6131;SDS011;3097;42.692;23.278;2023-10-09T05:27:27;7.13;;;2.10;;
6131;SDS011;3097;42.692;23.278;2023-10-09T05:30:25;6.47;;;2.00;;
6131;SDS011;3097;42.692;23.278;2023-10-09T05:32:51;7.13;;;2.10;;
6131;SDS011;3097;42.692;23.278;2023-10-09T05:35:21;7.83;;;1.90;;
6131;SDS011;3097;42.692;23.278;2023-10-09T05:38:05;2.30;;;2.10;;
6131;SDS011;3097;42.692;23.278;2023-10-09T05:40:40;2.70;;;1.50;;
6131;SDS011;3097;42.692;23.278;2023-10-09T05:43:08;2.10;;;1.90;;
6131;SDS011;3097;42.692;23.278;2023-10-09T05:45:54;4.13;;;1.40;;
6131;SDS011;3097;42.692;23.278;2023-10-09T05:48:40;3.40;;;2.20;;
6131;SDS011;3097;42.692;23.278;2023-10-09T05:51:05;2.87;;;1.40;;
6131;SDS011;3097;42.692;23.278;2023-10-09T05:53:34;1.70;;;1.60;;
6131;SDS011;3097;42.692;23.278;2023-10-09T05:56:19;5.93;;;1.67;;
6131;SDS011;3097;42.692;23.278;2023-10-09T05:58:57;1.80;;;1.70;;
6131;SDS011;3097;42.692;23.278;2023-10-09T06:01:41;2.00;;;1.70;;
6131;SDS011;3097;42.692;23.278;2023-10-09T06:04:16;2.40;;;1.50;;
6131;SDS011;3097;42.692;23.278;2023-10-09T06:06:43;9.37;;;5.83;;
6131;SDS011;3097;42.692;23.278;2023-10-09T06:09:10;6.00;;;1.50;;
6131;SDS011;3097;42.692;23.278;2023-10-09T06:11:39;1.67;;;1.40;;
6131;SDS011;3097;42.692;23.278;2023-10-09T06:14:06;1.67;;;1.57;;
6131;SDS011;3097;42.692;23.278;2023-10-09T06:16:41;1.50;;;1.40;;
6131;SDS011;3097;42.692;23.278;2023-10-09T06:19:09;3.67;;;1.00;;
6131;SDS011;3097;42.692;23.278;2023-10-09T06:21:44;1.90;;;1.50;;
6131;SDS011;3097;42.692;23.278;2023-10-09T06:24:29;3.07;;;1.30;;
6131;SDS011;3097;42.692;23.278;2023-10-09T06:27:06;12.03;;;7.53;;
6131;SDS011;3097;42.692;23.278;2023-10-09T06:29:32;2.70;;;2.00;;
6131;SDS011;3097;42.692;23.278;2023-10-09T06:32:10;1.63;;;1.50;;
6131;SDS011;3097;42.692;23.278;2023-10-09T06:34:52;7.90;;;1.93;;
6131;SDS011;3097;42.692;23.278;2023-10-09T06:37:43;2.67;;;1.40;;
6131;SDS011;3097;42.692;23.278;2023-10-09T06:43:02;3.80;;;1.60;;
6131;SDS011;3097;42.692;23.278;2023-10-09T06:45:46;3.60;;;1.60;;
6131;SDS011;3097;42.692;23.278;2023-10-09T06:48:34;9.30;;;1.50;;
6131;SDS011;3097;42.692;23.278;2023-10-09T06:53:33;1.80;;;1.57;;
6131;SDS011;3097;42.692;23.278;2023-10-09T06:56:17;1.40;;;1.30;;
6131;SDS011;3097;42.692;23.278;2023-10-09T06:58:54;2.40;;;1.40;;
6131;SDS011;3097;42.692;23.278;2023-10-09T07:01:25;12.47;;;8.43;;
6131;SDS011;3097;42.692;23.278;2023-10-09T07:03:50;7.97;;;2.13;;
6131;SDS011;3097;42.692;23.278;2023-10-09T07:06:19;4.17;;;1.20;;
6131;SDS011;3097;42.692;23.278;2023-10-09T07:09:00;2.67;;;1.60;;
6131;SDS011;3097;42.692;23.278;2023-10-09T07:11:35;2.67;;;1.53;;
6131;SDS011;3097;42.692;23.278;2023-10-09T07:14:22;3.90;;;1.80;;
6131;SDS011;3097;42.692;23.278;2023-10-09T07:17:04;1.60;;;1.50;;
6131;SDS011;3097;42.692;23.278;2023-10-09T07:19:45;3.67;;;1.80;;
6131;SDS011;3097;42.692;23.278;2023-10-09T07:22:11;1.20;;;1.20;;
6131;SDS011;3097;42.692;23.278;2023-10-09T07:25:01;3.27;;;1.40;;
6131;SDS011;3097;42.692;23.278;2023-10-09T07:27:40;1.37;;;1.27;;
6131;SDS011;3097;42.692;23.278;2023-10-09T07:30:09;1.43;;;1.33;;
6131;SDS011;3097;42.692;23.278;2023-10-09T07:32:54;4.70;;;1.90;;
6131;SDS011;3097;42.692;23.278;2023-10-09T07:35:20;1.40;;;1.40;;
6131;SDS011;3097;42.692;23.278;2023-10-09T07:38:05;1.83;;;1.60;;
6131;SDS011;3097;42.692;23.278;2023-10-09T07:40:34;2.17;;;1.50;;
6131;SDS011;3097;42.692;23.278;2023-10-09T07:43:17;6.13;;;3.20;;
6131;SDS011;3097;42.692;23.278;2023-10-09T07:45:43;1.70;;;1.60;;
6131;SDS011;3097;42.692;23.278;2023-10-09T07:48:14;1.87;;;1.77;;
6131;SDS011;3097;42.692;23.278;2023-10-09T07:50:40;6.23;;;2.80;;
6131;SDS011;3097;42.692;23.278;2023-10-09T07:53:24;3.17;;;1.97;;
6131;SDS011;3097;42.692;23.278;2023-10-09T07:55:54;2.87;;;1.60;;
6131;SDS011;3097;42.692;23.278;2023-10-09T07:58:31;1.57;;;1.47;;
6131;SDS011;3097;42.692;23.278;2023-10-09T08:00:58;2.07;;;1.40;;
6131;SDS011;3097;42.692;23.278;2023-10-09T08:03:40;2.30;;;1.80;;
6131;SDS011;3097;42.692;23.278;2023-10-09T08:06:12;1.70;;;1.60;;
6131;SDS011;3097;42.692;23.278;2023-10-09T08:09:16;2.57;;;1.70;;
6131;SDS011;3097;42.692;23.278;2023-10-09T08:11:44;1.50;;;1.40;;
6131;SDS011;3097;42.692;23.278;2023-10-09T08:14:10;1.70;;;1.60;;
6131;SDS011;3097;42.692;23.278;2023-10-09T08:16:55;1.60;;;1.40;;
6131;SDS011;3097;42.692;23.278;2023-10-09T08:19:48;1.83;;;1.43;;
6131;SDS011;3097;42.692;23.278;2023-10-09T08:22:21;3.20;;;0.90;;
6131;SDS011;3097;42.692;23.278;2023-10-09T08:24:50;1.30;;;1.20;;
6131;SDS011;3097;42.692;23.278;2023-10-09T08:27:28;2.20;;;1.20;;
6131;SDS011;3097;42.692;23.278;2023-10-09T08:29:59;1.63;;;1.53;;
6131;SDS011;3097;42.692;23.278;2023-10-09T08:32:38;2.50;;;1.17;;
6131;SDS011;3097;42.692;23.278;2023-10-09T08:35:06;1.30;;;1.20;;
6131;SDS011;3097;42.692;23.278;2023-10-09T08:37:57;5.00;;;1.50;;
6131;SDS011;3097;42.692;23.278;2023-10-09T08:40:36;4.57;;;1.20;;
6131;SDS011;3097;42.692;23.278;2023-10-09T08:45:46;1.87;;;1.47;;
6131;SDS011;3097;42.692;23.278;2023-10-09T08:48:13;3.50;;;1.73;;
6131;SDS011;3097;42.692;23.278;2023-10-09T08:50:46;1.77;;;1.47;;
6131;SDS011;3097;42.692;23.278;2023-10-09T08:53:14;2.50;;;1.40;;
6131;SDS011;3097;42.692;23.278;2023-10-09T08:55:44;1.67;;;1.23;;
6131;SDS011;3097;42.692;23.278;2023-10-09T08:58:11;1.40;;;1.30;;
6131;SDS011;3097;42.692;23.278;2023-10-09T09:00:56;4.40;;;1.50;;
6131;SDS011;3097;42.692;23.278;2023-10-09T09:03:23;1.93;;;1.50;;
6131;SDS011;3097;42.692;23.278;2023-10-09T09:05:58;1.10;;;1.00;;
6131;SDS011;3097;42.692;23.278;2023-10-09T09:08:26;4.73;;;1.20;;
6131;SDS011;3097;42.692;23.278;2023-10-09T09:16:36;4.57;;;1.93;;
6131;SDS011;3097;42.692;23.278;2023-10-09T09:19:09;1.93;;;1.60;;
6131;SDS011;3097;42.692;23.278;2023-10-09T09:21:57;1.50;;;1.40;;
6131;SDS011;3097;42.692;23.278;2023-10-09T09:24:36;1.70;;;1.57;;
6131;SDS011;3097;42.692;23.278;2023-10-09T09:27:03;2.70;;;1.33;;
6131;SDS011;3097;42.692;23.278;2023-10-09T09:32:06;4.97;;;1.63;;
6131;SDS011;3097;42.692;23.278;2023-10-09T09:34:45;1.60;;;1.50;;
6131;SDS011;3097;42.692;23.278;2023-10-09T09:37:22;1.70;;;1.60;;
6131;SDS011;3097;42.692;23.278;2023-10-09T09:39:54;2.53;;;1.40;;
6131;SDS011;3097;42.692;23.278;2023-10-09T09:42:22;2.70;;;1.70;;
6131;SDS011;3097;42.692;23.278;2023-10-09T09:44:51;3.10;;;1.83;;
6131;SDS011;3097;42.692;23.278;2023-10-09T09:47:17;2.33;;;1.50;;
6131;SDS011;3097;42.692;23.278;2023-10-09T09:49:55;4.23;;;1.80;;
6131;SDS011;3097;42.692;23.278;2023-10-09T09:52:34;2.93;;;1.73;;
6131;SDS011;3097;42.692;23.278;2023-10-09T09:55:06;1.97;;;1.80;;
6131;SDS011;3097;42.692;23.278;2023-10-09T09:57:47;1.57;;;1.47;;
6131;SDS011;3097;42.692;23.278;2023-10-09T10:00:16;1.63;;;1.53;;
6131;SDS011;3097;42.692;23.278;2023-10-09T10:03:14;4.53;;;1.57;;
6131;SDS011;3097;42.692;23.278;2023-10-09T10:05:45;1.67;;;1.57;;
6131;SDS011;3097;42.692;23.278;2023-10-09T10:08:16;3.63;;;1.90;;
6131;SDS011;3097;42.692;23.278;2023-10-09T10:10:45;1.60;;;1.50;;
6131;SDS011;3097;42.692;23.278;2023-10-09T10:13:54;1.60;;;1.50;;
6131;SDS011;3097;42.692;23.278;2023-10-09T10:16:21;5.43;;;2.13;;
6131;SDS011;3097;42.692;23.278;2023-10-09T10:19:00;4.00;;;2.23;;
6131;SDS011;3097;42.692;23.278;2023-10-09T10:21:47;1.83;;;1.70;;
6131;SDS011;3097;42.692;23.278;2023-10-09T10:27:17;1.57;;;1.47;;
6131;SDS011;3097;42.692;23.278;2023-10-09T10:30:34;2.00;;;1.43;;
6131;SDS011;3097;42.692;23.278;2023-10-09T10:32:56;1.30;;;1.20;;
6131;SDS011;3097;42.692;23.278;2023-10-09T10:35:34;0.97;;;0.90;;
6131;SDS011;3097;42.692;23.278;2023-10-09T10:40:47;4.13;;;2.00;;
6131;SDS011;3097;42.692;23.278;2023-10-09T10:43:22;2.73;;;1.80;;
6131;SDS011;3097;42.692;23.278;2023-10-09T10:46:05;2.33;;;1.70;;
6131;SDS011;3097;42.692;23.278;2023-10-09T10:48:39;1.70;;;1.60;;
6131;SDS011;3097;42.692;23.278;2023-10-09T10:51:11;2.03;;;1.70;;
6131;SDS011;3097;42.692;23.278;2023-10-09T10:53:49;0.93;;;0.90;;
6131;SDS011;3097;42.692;23.278;2023-10-09T10:56:23;1.60;;;1.50;;
6131;SDS011;3097;42.692;23.278;2023-10-09T10:59:00;1.70;;;1.60;;
6131;SDS011;3097;42.692;23.278;2023-10-09T11:01:31;3.07;;;1.70;;
6131;SDS011;3097;42.692;23.278;2023-10-09T11:04:22;1.27;;;1.27;;
6131;SDS011;3097;42.692;23.278;2023-10-09T11:06:55;3.60;;;1.90;;
6131;SDS011;3097;42.692;23.278;2023-10-09T11:09:52;3.00;;;2.80;;
6131;SDS011;3097;42.692;23.278;2023-10-09T11:12:30;8.00;;;5.40;;
6131;SDS011;3097;42.692;23.278;2023-10-09T11:15:06;5.53;;;4.83;;
6131;SDS011;3097;42.692;23.278;2023-10-09T11:17:36;5.33;;;4.77;;
6131;SDS011;3097;42.692;23.278;2023-10-09T11:20:04;5.37;;;4.73;;
6131;SDS011;3097;42.692;23.278;2023-10-09T11:22:52;8.37;;;5.57;;
6131;SDS011;3097;42.692;23.278;2023-10-09T11:25:39;6.80;;;6.10;;
6131;SDS011;3097;42.692;23.278;2023-10-09T11:28:24;3.50;;;1.77;;
6131;SDS011;3097;42.692;23.278;2023-10-09T11:31:11;4.47;;;3.90;;
6131;SDS011;3097;42.692;23.278;2023-10-09T11:33:43;15.70;;;9.40;;
6131;SDS011;3097;42.692;23.278;2023-10-09T11:36:22;7.53;;;6.77;;
6131;SDS011;3097;42.692;23.278;2023-10-09T11:38:58;3.90;;;3.57;;
6131;SDS011;3097;42.692;23.278;2023-10-09T11:41:44;5.10;;;3.43;;
6131;SDS011;3097;42.692;23.278;2023-10-09T11:44:09;1.57;;;1.40;;
6131;SDS011;3097;42.692;23.278;2023-10-09T11:47:02;3.47;;;3.17;;
6131;SDS011;3097;42.692;23.278;2023-10-09T11:49:49;12.17;;;9.23;;
6131;SDS011;3097;42.692;23.278;2023-10-09T11:52:36;8.20;;;7.40;;
6131;SDS011;3097;42.692;23.278;2023-10-09T11:55:21;7.00;;;6.30;;
6131;SDS011;3097;42.692;23.278;2023-10-09T11:57:50;10.20;;;3.67;;
6131;SDS011;3097;42.692;23.278;2023-10-09T12:00:16;2.77;;;1.97;;
6131;SDS011;3097;42.692;23.278;2023-10-09T12:02:51;2.60;;;2.40;;
6131;SDS011;3097;42.692;23.278;2023-10-09T12:05:17;2.33;;;2.13;;
6131;SDS011;3097;42.692;23.278;2023-10-09T12:07:47;4.07;;;2.90;;
6131;SDS011;3097;42.692;23.278;2023-10-09T12:10:20;4.17;;;3.17;;
6131;SDS011;3097;42.692;23.278;2023-10-09T12:12:54;6.50;;;3.60;;
6131;SDS011;3097;42.692;23.278;2023-10-09T12:15:23;3.27;;;1.70;;
6131;SDS011;3097;42.692;23.278;2023-10-09T12:17:49;1.57;;;1.33;;
6131;SDS011;3097;42.692;23.278;2023-10-09T12:20:18;3.53;;;1.87;;
6131;SDS011;3097;42.692;23.278;2023-10-09T12:23:03;1.60;;;1.50;;
6131;SDS011;3097;42.692;23.278;2023-10-09T12:25:32;1.40;;;1.30;;
6131;SDS011;3097;42.692;23.278;2023-10-09T12:28:02;1.57;;;1.47;;
6131;SDS011;3097;42.692;23.278;2023-10-09T12:30:31;1.37;;;1.27;;
6131;SDS011;3097;42.692;23.278;2023-10-09T12:33:03;1.77;;;1.57;;
6131;SDS011;3097;42.692;23.278;2023-10-09T12:35:28;3.53;;;1.40;;
6131;SDS011;3097;42.692;23.278;2023-10-09T12:37:59;3.60;;;1.30;;
6131;SDS011;3097;42.692;23.278;2023-10-09T12:40:25;4.23;;;1.43;;
6131;SDS011;3097;42.692;23.278;2023-10-09T12:42:54;3.40;;;1.40;;
6131;SDS011;3097;42.692;23.278;2023-10-09T12:45:21;3.13;;;2.03;;
6131;SDS011;3097;42.692;23.278;2023-10-09T12:47:57;4.77;;;2.67;;
6131;SDS011;3097;42.692;23.278;2023-10-09T12:50:34;3.17;;;2.23;;
6131;SDS011;3097;42.692;23.278;2023-10-09T12:53:00;2.40;;;2.20;;
6131;SDS011;3097;42.692;23.278;2023-10-09T12:55:35;1.87;;;1.77;;
6131;SDS011;3097;42.692;23.278;2023-10-09T12:58:07;2.93;;;2.60;;
6131;SDS011;3097;42.692;23.278;2023-10-09T13:00:37;3.80;;;3.27;;
6131;SDS011;3097;42.692;23.278;2023-10-09T13:03:09;3.17;;;1.83;;
6131;SDS011;3097;42.692;23.278;2023-10-09T13:05:45;1.70;;;1.60;;
6131;SDS011;3097;42.692;23.278;2023-10-09T13:08:20;2.57;;;1.70;;
6131;SDS011;3097;42.692;23.278;2023-10-09T13:10:50;2.00;;;1.80;;
6131;SDS011;3097;42.692;23.278;2023-10-09T13:13:24;3.73;;;2.10;;
6131;SDS011;3097;42.692;23.278;2023-10-09T13:16:01;1.50;;;1.40;;
6131;SDS011;3097;42.692;23.278;2023-10-09T13:18:31;1.80;;;1.70;;
6131;SDS011;3097;42.692;23.278;2023-10-09T13:20:56;1.70;;;1.60;;
6131;SDS011;3097;42.692;23.278;2023-10-09T13:23:22;2.17;;;1.97;;
6131;SDS011;3097;42.692;23.278;2023-10-09T13:25:48;2.90;;;2.40;;
6131;SDS011;3097;42.692;23.278;2023-10-09T13:28:14;3.47;;;1.90;;
6131;SDS011;3097;42.692;23.278;2023-10-09T13:30:45;2.10;;;1.80;;
6131;SDS011;3097;42.692;23.278;2023-10-09T13:33:14;3.10;;;1.70;;
6131;SDS011;3097;42.692;23.278;2023-10-09T13:35:42;3.33;;;3.13;;
6131;SDS011;3097;42.692;23.278;2023-10-09T13:38:16;2.73;;;2.53;;
6131;SDS011;3097;42.692;23.278;2023-10-09T13:40:42;1.83;;;1.73;;
6131;SDS011;3097;42.692;23.278;2023-10-09T13:43:07;2.20;;;2.00;;
6131;SDS011;3097;42.692;23.278;2023-10-09T13:45:41;1.87;;;1.77;;
6131;SDS011;3097;42.692;23.278;2023-10-09T13:48:14;2.87;;;1.80;;
6131;SDS011;3097;42.692;23.278;2023-10-09T13:50:42;1.97;;;1.83;;
6131;SDS011;3097;42.692;23.278;2023-10-09T13:53:08;4.00;;;2.30;;
6131;SDS011;3097;42.692;23.278;2023-10-09T13:55:37;3.13;;;2.83;;
6131;SDS011;3097;42.692;23.278;2023-10-09T13:58:08;3.63;;;3.07;;
6131;SDS011;3097;42.692;23.278;2023-10-09T14:00:39;3.87;;;2.97;;
6131;SDS011;3097;42.692;23.278;2023-10-09T14:03:07;4.37;;;3.50;;
6131;SDS011;3097;42.692;23.278;2023-10-09T14:05:44;4.80;;;4.30;;
6131;SDS011;3097;42.692;23.278;2023-10-09T14:08:20;10.80;;;8.00;;
6131;SDS011;3097;42.692;23.278;2023-10-09T14:10:49;10.87;;;6.80;;
6131;SDS011;3097;42.692;23.278;2023-10-09T14:13:17;4.90;;;4.37;;
6131;SDS011;3097;42.692;23.278;2023-10-09T14:15:51;7.47;;;5.57;;
6131;SDS011;3097;42.692;23.278;2023-10-09T14:18:19;10.07;;;6.83;;
6131;SDS011;3097;42.692;23.278;2023-10-09T14:20:45;10.60;;;5.97;;
6131;SDS011;3097;42.692;23.278;2023-10-09T14:23:11;4.70;;;4.30;;
6131;SDS011;3097;42.692;23.278;2023-10-09T14:25:45;3.93;;;3.43;;
6131;SDS011;3097;42.692;23.278;2023-10-09T14:28:14;3.50;;;3.27;;
6131;SDS011;3097;42.692;23.278;2023-10-09T14:30:44;2.57;;;2.07;;
6131;SDS011;3097;42.692;23.278;2023-10-09T14:33:12;1.87;;;1.77;;
6131;SDS011;3097;42.692;23.278;2023-10-09T14:35:40;7.13;;;2.20;;
6131;SDS011;3097;42.692;23.278;2023-10-09T14:38:07;3.60;;;3.10;;
6131;SDS011;3097;42.692;23.278;2023-10-09T14:40:45;3.60;;;3.30;;
6131;SDS011;3097;42.692;23.278;2023-10-09T14:43:11;5.27;;;2.77;;
6131;SDS011;3097;42.692;23.278;2023-10-09T14:45:46;2.37;;;2.17;;
6131;SDS011;3097;42.692;23.278;2023-10-09T14:48:20;4.03;;;2.47;;
6131;SDS011;3097;42.692;23.278;2023-10-09T14:50:53;4.10;;;2.40;;
6131;SDS011;3097;42.692;23.278;2023-10-09T14:53:22;2.60;;;2.30;;
6131;SDS011;3097;42.692;23.278;2023-10-09T14:55:55;3.87;;;2.90;;
6131;SDS011;3097;42.692;23.278;2023-10-09T14:58:21;3.93;;;2.77;;
6131;SDS011;3097;42.692;23.278;2023-10-09T15:00:50;7.53;;;2.77;;
6131;SDS011;3097;42.692;23.278;2023-10-09T15:03:17;5.03;;;2.70;;
6131;SDS011;3097;42.692;23.278;2023-10-09T15:05:45;13.50;;;3.30;;
6131;SDS011;3097;42.692;23.278;2023-10-09T15:08:11;5.40;;;2.60;;
6131;SDS011;3097;42.692;23.278;2023-10-09T15:10:50;2.53;;;2.20;;
6131;SDS011;3097;42.692;23.278;2023-10-09T15:13:21;2.67;;;2.10;;
6131;SDS011;3097;42.692;23.278;2023-10-09T15:15:53;5.53;;;2.47;;
6131;SDS011;3097;42.692;23.278;2023-10-09T15:18:19;5.60;;;2.73;;
6131;SDS011;3097;42.692;23.278;2023-10-09T15:20:46;7.77;;;2.70;;
6131;SDS011;3097;42.692;23.278;2023-10-09T15:23:13;15.27;;;2.90;;
6131;SDS011;3097;42.692;23.278;2023-10-09T15:25:38;5.53;;;2.60;;
6131;SDS011;3097;42.692;23.278;2023-10-09T15:28:05;5.43;;;3.10;;
6131;SDS011;3097;42.692;23.278;2023-10-09T15:30:35;9.63;;;3.10;;
6131;SDS011;3097;42.692;23.278;2023-10-09T15:33:06;14.17;;;4.20;;
6131;SDS011;3097;42.692;23.278;2023-10-09T15:35:32;6.13;;;3.90;;
6131;SDS011;3097;42.692;23.278;2023-10-09T15:38:01;3.93;;;3.57;;
6131;SDS011;3097;42.692;23.278;2023-10-09T15:40:32;8.43;;;4.00;;
6131;SDS011;3097;42.692;23.278;2023-10-09T15:43:01;4.50;;;3.30;;
6131;SDS011;3097;42.692;23.278;2023-10-09T15:45:30;5.50;;;2.90;;
6131;SDS011;3097;42.692;23.278;2023-10-09T15:47:56;6.87;;;3.17;;
6131;SDS011;3097;42.692;23.278;2023-10-09T15:50:22;9.47;;;3.97;;
6131;SDS011;3097;42.692;23.278;2023-10-09T15:52:51;9.27;;;4.47;;
6131;SDS011;3097;42.692;23.278;2023-10-09T15:55:19;10.17;;;4.73;;
6131;SDS011;3097;42.692;23.278;2023-10-09T15:57:52;8.13;;;4.70;;
6131;SDS011;3097;42.692;23.278;2023-10-09T16:00:19;9.60;;;4.40;;